• Join FlightAware (Why Join?)
  • Login
  • US Flag 
10:24AM EDT


 

Airport Tracker/Info


-or-


 

Live Flight TrackerFlight Track Log ✈ N960DL ✈ 13-Apr-2013 ✈ KATL - KBNA

Flight Track Log - Related Links

Times and Time Zones

All times are in EDT time to prevent confusion due to time zone crossing. See the N960DL flight status page for this flight to view local times or setup timezone preferences in your user account.

Time Position Orientation Groundspeed Altitude Reporting Facility
EDT Latitude Longitude Course Direction KTS MPH feet Rate Location/Type
09:03PM 33.6500 -84.4667 342° North 184 212 2,900  Level Atlanta TRACON
09:04PM 33.6833 -84.5500 296° West 270 311 6,000 2,400 Climbing Atlanta TRACON
09:06PM 33.8097 -84.5814 348° North 289 333 10,000 1,680 Climbing Atlanta Center
09:07PM 33.8933 -84.5819 360° North 289 333 11,000 1,800 Climbing Atlanta Center
09:08PM 33.9911 -84.6175 343° North 336 387 13,700 3,000 Climbing Atlanta Center
09:09PM 34.0089 -84.6168 342° North  Level FlightAware Approximate
09:09PM 34.0933 -84.6558 343° North 365 420 17,100  Level Atlanta Center
09:10PM 34.1911 -84.6917 343° North 406 467 19,200 2,400 Climbing Atlanta Center
09:11PM 34.2994 -84.7403 340° North 412 474 21,900 2,160 Climbing Atlanta Center
09:12PM 34.3950 -84.8192 326° Northwest 407 468 23,600 1,980 Climbing Atlanta Center
09:13PM 34.4883 -84.8906 328° Northwest 408 470 25,900 1,200 Climbing Atlanta Center
09:14PM 34.5881 -84.9672 328° Northwest 415 478 26,000  Climbing Atlanta Center
09:15PM 34.6856 -85.0417 328° Northwest 415 478 26,000  Level Atlanta Center
09:16PM 34.7831 -85.1186 327° Northwest 415 478 26,000  Level Atlanta Center
09:17PM 34.8825 -85.1983 327° Northwest 415 478 26,000 -840 Level Atlanta Center
09:18PM 34.9797 -85.2708 329° Northwest 415 478 24,400 -1,020 Descending Atlanta Center
09:19PM 35.0792 -85.3483 327° Northwest 415 478 24,000 -240 Descending Atlanta Center
09:20PM 35.1744 -85.4314 325° Northwest 420 483 24,000  Level Memphis Center
09:21PM 35.2600 -85.5383 314° West 415 478 24,000 -600 Level Memphis Center
09:22PM 35.3389 -85.6406 313° West 415 478 22,800 -1,380 Descending Memphis Center
09:23PM 35.4136 -85.7383 313° West 402 463 21,300 -1,440 Descending Memphis Center
09:24PM 35.4878 -85.8311 314° West 396 456 20,000 -1,500 Descending Memphis Center
09:25PM 35.5644 -85.9292 314° West 396 456 18,300 -2,520 Descending Memphis Center
09:26PM 35.6322 -86.0200 313° West 385 443 15,000 -3,120 Descending Memphis Center
09:27PM 35.6981 -86.1083 313° West 360 414 12,100 -2,400 Descending Memphis Center
09:28PM 35.7678 -86.2019 313° West 349 402 10,200 -1,260 Descending Memphis Center
09:29PM 35.8081 -86.2794 303° West 306 352 9,600 -1,500 Descending Memphis Center
09:30PM 35.8317 -86.3706 288° West 276 318 7,300 -2,160 Descending Memphis Center
09:31PM 35.8553 -86.4539 289° West 261 300 5,300 -1,680 Descending Memphis Center
09:32PM 35.8806 -86.5319 292° West 256 295 4,000 -1,140 Descending Memphis Center
09:33PM 35.9219 -86.5864 313° West 230 265 3,100 -600 Descending Memphis Center
09:34PM 35.9589 -86.6411 310° West 214 246 2,800 -300 Descending Memphis Center
09:35PM 35.9958 -86.6908 313° West 197 227 2,500 -240 Descending Memphis Center
09:36PM 36.0322 -86.7225 325° Northwest 191 220 2,400 -480 Descending Memphis Center
09:37PM 36.0694 -86.7056 20° North 142 163 1,600 -780 Descending Memphis Center
09:38PM 36.1064 -86.6911 18° North 142 163 900 -720 Descending Memphis Center